Time,TemperatureF,DewpointF,PressureIn,WindDirection,WindDirectionDegrees,WindSpeedMPH,WindSpeedGustMPH,Humidity,HourlyPrecipIn,Conditions,Clouds,dailyrainin,SolarRadiationWatts/m^2,SoftwareType,DateUTC
2014-07-25 00:33:00,75.0,73.0,-100.00,East,80,5.0,9.0,92,0.00,,,0.00,0.000000,,2014-07-25 05:33:00,
2014-07-25 00:43:00,75.0,73.0,-100.00,East,80,5.0,9.0,92,0.00,,,0.00,0.000000,,2014-07-25 05:43:00,
2014-07-25 01:42:00,74.0,72.0,-100.00,East,80,4.0,6.0,93,0.00,,,0.00,0.000000,,2014-07-25 06:42:00,
2014-07-25 01:53:00,74.0,72.0,-100.00,East,80,4.0,6.0,93,0.00,,,0.00,0.000000,,2014-07-25 06:53:00,
2014-07-25 03:32:00,72.0,70.0,-100.00,East,99,4.0,8.0,94,0.00,,,0.00,0.000000,,2014-07-25 08:32:00,
2014-07-25 03:42:00,72.0,70.0,-100.00,East,99,4.0,8.0,94,0.00,,,0.00,0.000000,,2014-07-25 08:42:00,
2014-07-25 03:52:00,72.0,70.0,-100.00,East,99,4.0,8.0,94,0.00,,,0.00,0.000000,,2014-07-25 08:52:00,
2014-07-25 04:43:00,71.0,69.0,-100.00,NE,50,4.0,6.0,94,0.00,,,0.00,0.000000,,2014-07-25 09:43:00,
2014-07-25 05:32:00,71.0,69.0,-100.00,ENE,66,2.0,5.0,95,0.00,,,0.00,0.000000,,2014-07-25 10:32:00,
2014-07-25 06:33:00,70.0,68.0,-100.00,East,79,2.0,5.0,95,0.00,,,0.00,0.000000,,2014-07-25 11:33:00,
2014-07-25 06:43:00,70.0,68.0,-100.00,East,79,2.0,5.0,95,0.00,,,0.00,0.000000,,2014-07-25 11:43:00,
2014-07-25 06:52:00,70.0,68.0,-100.00,East,79,2.0,5.0,95,0.00,,,0.00,0.000000,,2014-07-25 11:52:00,
2014-07-25 07:32:00,69.0,68.0,-100.00,North,-999,0.0,1.0,95,0.00,,,0.00,0.000000,,2014-07-25 12:32:00,
2014-07-25 07:42:00,69.0,68.0,-100.00,North,-999,0.0,1.0,95,0.00,,,0.00,0.000000,,2014-07-25 12:42:00,
2014-07-25 08:32:00,73.0,71.0,-100.00,East,92,4.0,5.0,95,0.00,,,0.00,0.000000,,2014-07-25 13:32:00,
2014-07-25 09:32:00,78.0,71.0,-100.00,SE,135,6.0,8.0,80,0.00,,,0.00,0.000000,,2014-07-25 14:32:00,
2014-07-25 09:52:00,78.0,71.0,-100.00,SE,135,6.0,8.0,80,0.00,,,0.00,0.000000,,2014-07-25 14:52:00,
2014-07-25 10:33:00,84.0,71.0,-100.00,ESE,110,5.0,9.0,65,0.00,,,0.00,0.000000,,2014-07-25 15:33:00,
2014-07-25 12:34:00,87.0,72.0,-100.00,SSW,209,5.0,9.0,62,0.00,,,0.00,0.000000,,2014-07-25 17:34:00,
2014-07-25 12:43:00,87.0,72.0,-100.00,SSW,209,5.0,9.0,62,0.00,,,0.00,0.000000,,2014-07-25 17:43:00,
2014-07-25 13:42:00,88.0,70.0,-100.00,SSW,208,3.0,9.0,55,0.00,,,0.00,0.000000,,2014-07-25 18:42:00,
2014-07-25 13:53:00,88.0,70.0,-100.00,SSW,208,3.0,9.0,55,0.00,,,0.00,0.000000,,2014-07-25 18:53:00,
2014-07-25 14:32:00,90.0,69.0,-100.00,SW,228,6.0,11.0,51,0.00,,,0.00,0.000000,,2014-07-25 19:32:00,
2014-07-25 14:53:00,90.0,69.0,-100.00,SW,228,6.0,11.0,51,0.00,,,0.00,0.000000,,2014-07-25 19:53:00,
2014-07-25 15:32:00,92.0,70.0,-100.00,SSW,207,7.0,10.0,49,0.00,,,0.00,0.000000,,2014-07-25 20:32:00,
2014-07-25 15:52:00,92.0,70.0,-100.00,SSW,207,7.0,10.0,49,0.00,,,0.00,0.000000,,2014-07-25 20:52:00,
2014-07-25 16:33:00,94.0,73.0,-100.00,NNW,332,4.0,9.0,51,0.00,,,0.00,0.000000,,2014-07-25 21:33:00,
2014-07-25 17:43:00,93.0,71.0,-100.00,South,191,2.0,7.0,49,0.00,,,0.00,0.000000,,2014-07-25 22:43:00,
2014-07-25 17:53:00,93.0,71.0,-100.00,South,191,2.0,7.0,49,0.00,,,0.00,0.000000,,2014-07-25 22:53:00,
2014-07-25 18:33:00,93.0,71.0,-100.00,WSW,242,3.0,6.0,49,0.00,,,0.00,0.000000,,2014-07-25 23:33:00,
2014-07-25 18:42:00,93.0,71.0,-100.00,WSW,242,3.0,6.0,49,0.00,,,0.00,0.000000,,2014-07-25 23:42:00,
2014-07-25 18:53:00,93.0,71.0,-100.00,WSW,242,3.0,6.0,49,0.00,,,0.00,0.000000,,2014-07-25 23:53:00,
2014-07-25 19:32:00,91.0,73.0,-100.00,SSW,202,4.0,5.0,56,0.00,,,0.00,0.000000,,2014-07-26 00:32:00,